MMCP

Details ICAO MMCP (CPE)
Name INGENIERO ALBERTO ACUNA ONGAY INTL
Region Mexico
Timezone America/Merida (UTC-5.0)
Plans Departing 20
Arriving 25
Stats Elevation 34 ft / 10 m (AMSL)
Location 19.816795° -90.500314°
Runways 1
Magnetic Variation 0.337° E
Sunrise 2018-05-20 11:25:59 UTC / 2018-05-20 06:25:59 Local
Sunset 2018-05-21 00:33:57 UTC / 2018-05-20 19:33:57 Local
Advertisement - Login to hide

Runways

ID Width Length Bearing (true) Bearing (mag) Surface Threshold Offset Overrun Length
16 148 ft / 45 m 8,264 ft / 2,519 m 166.22° 165.88° Asphalt 0 ft / 0 m 0 ft / 0 m
34 148 ft / 45 m 8,264 ft / 2,519 m 346.22° 345.88° Asphalt 0 ft / 0 m 160 ft / 49 m

Map

Weather


0- 5 10 15 20 25 30 35+ Temperature / ° C

Clouds and Precipitation
Forecast for 2018-05-20 18:00 UTC. Updated an hour ago

Ground ~20,000 ft ~40,000 ft Winds

METAR

MMCP 201544Z 10015KT 7SM SCT030 31/22 A2989 RMK 8/100

TAF

Not found

Frequencies

Tower 118.50 MHz CAMPECHE TWR
Warning: Do not use this data for real-world aviation or navigation. No guarantee of current accuracy is given.